createdAt,value
2023-04-04T00:00:34.866Z,65.74
2023-04-04T00:03:02.127Z,65.64
2023-04-04T00:05:29.175Z,65.93
2023-04-04T00:07:56.632Z,65.50
2023-04-04T00:10:23.607Z,65.66
2023-04-04T00:12:50.782Z,65.60
2023-04-04T00:15:17.965Z,64.64
2023-04-04T00:17:44.932Z,65.10
2023-04-04T00:20:12.064Z,65.39
2023-04-04T00:22:38.985Z,65.53
2023-04-04T00:25:06.312Z,65.74
2023-04-04T00:27:33.286Z,65.28
2023-04-04T00:30:00.460Z,65.39
2023-04-04T00:32:27.650Z,65.40
2023-04-04T00:34:54.912Z,64.89
2023-04-04T00:37:22.036Z,65.28
2023-04-04T00:39:49.851Z,65.29
2023-04-04T00:42:17.076Z,65.67
2023-04-04T00:44:44.151Z,65.54
2023-04-04T00:47:11.219Z,65.52
2023-04-04T00:49:38.204Z,65.48
2023-04-04T00:52:07.492Z,65.54
2023-04-04T00:54:35.549Z,65.67
2023-04-04T00:57:06.293Z,65.38
2023-04-04T00:59:33.826Z,65.56
2023-04-04T01:02:01.173Z,65.45
2023-04-04T01:04:31.995Z,65.59
2023-04-04T01:07:00.810Z,65.63
2023-04-04T01:09:28.517Z,65.59
2023-04-04T01:11:57.244Z,65.33
2023-04-04T01:14:25.760Z,65.36
2023-04-04T01:16:53.659Z,65.36
2023-04-04T01:19:44.544Z,65.24
2023-04-04T01:22:17.760Z,65.15
2023-04-04T01:24:48.496Z,65.15
2023-04-04T01:27:16.257Z,65.03
2023-04-04T01:29:50.995Z,65.27
2023-04-04T01:33:08.133Z,65.11
2023-04-04T01:35:57.083Z,65.03
2023-04-04T01:39:05.429Z,65.05
2023-04-04T01:41:35.255Z,64.86
2023-04-04T01:44:03.806Z,65.17
2023-04-04T01:46:31.450Z,65.37
2023-04-04T01:49:00.261Z,65.08
2023-04-04T01:51:31.230Z,65.01
2023-04-04T01:53:58.467Z,65.29
2023-04-04T01:56:25.628Z,65.14
2023-04-04T01:58:53.661Z,65.02
2023-04-04T02:01:21.248Z,65.06
2023-04-04T02:03:48.520Z,64.81
2023-04-04T02:06:15.515Z,65.23
2023-04-04T02:08:43.203Z,65.16
2023-04-04T02:11:10.842Z,65.15
2023-04-04T02:13:41.224Z,64.93
2023-04-04T02:16:08.543Z,64.97
2023-04-04T02:18:36.112Z,65.01
2023-04-04T02:21:03.229Z,65.07
2023-04-04T02:23:30.170Z,64.84
2023-04-04T02:25:57.092Z,65.01
2023-04-04T02:28:24.193Z,65.27
2023-04-04T02:30:51.250Z,65.15
2023-04-04T02:33:18.193Z,65.01
2023-04-04T02:35:45.847Z,65.11
2023-04-04T02:38:12.805Z,65.12
2023-04-04T02:40:46.189Z,65.04
2023-04-04T02:43:13.305Z,65.03
2023-04-04T02:45:40.828Z,65.07
2023-04-04T02:48:17.192Z,64.57
2023-04-04T02:50:47.962Z,64.99
2023-04-04T02:53:15.877Z,65.03
2023-04-04T02:55:43.713Z,64.95
2023-04-04T02:58:10.704Z,65.07
2023-04-04T03:00:37.841Z,65.12
2023-04-04T03:03:05.403Z,65.25
2023-04-04T03:05:36.845Z,64.91
2023-04-04T03:08:04.794Z,65.15
2023-04-04T03:10:32.081Z,64.98
2023-04-04T03:12:59.577Z,65.09
2023-04-04T03:15:28.904Z,64.99
2023-04-04T03:17:56.754Z,64.83
2023-04-04T03:20:27.933Z,65.09
2023-04-04T03:22:54.972Z,64.70
2023-04-04T03:25:21.935Z,64.79
2023-04-04T03:27:48.894Z,64.88
2023-04-04T03:30:24.994Z,64.92
2023-04-04T03:32:52.029Z,65.02
2023-04-04T03:35:19.058Z,65.03
2023-04-04T03:37:46.013Z,65.07
2023-04-04T03:40:13.874Z,64.92
2023-04-04T03:42:41.556Z,64.61
2023-04-04T03:45:11.648Z,64.81
2023-04-04T03:47:40.793Z,64.98
2023-04-04T03:50:08.296Z,64.96
2023-04-04T03:52:42.164Z,64.81
2023-04-04T03:55:09.879Z,64.87
2023-04-04T03:57:36.904Z,65.00
2023-04-04T04:00:06.424Z,65.03
2023-04-04T04:02:40.021Z,64.89
2023-04-04T04:05:09.182Z,64.93
2023-04-04T04:07:36.269Z,64.85
2023-04-04T04:10:05.324Z,64.91
2023-04-04T04:12:32.848Z,64.82
2023-04-04T04:14:59.818Z,64.92
2023-04-04T04:17:27.691Z,64.84
2023-04-04T04:19:54.778Z,64.78
2023-04-04T04:22:23.248Z,65.02
2023-04-04T04:24:50.512Z,64.98
2023-04-04T04:27:17.569Z,65.03
2023-04-04T04:29:44.616Z,64.94
2023-04-04T04:32:17.599Z,64.82
2023-04-04T04:34:48.980Z,64.88
2023-04-04T04:37:17.977Z,65.03
2023-04-04T04:39:48.799Z,64.98
2023-04-04T04:42:36.179Z,65.01
2023-04-04T04:45:04.337Z,64.97
2023-04-04T04:47:34.665Z,65.07
2023-04-04T04:50:05.997Z,64.80
2023-04-04T04:52:42.518Z,64.99
2023-04-04T04:55:11.464Z,64.80
2023-04-04T04:57:43.671Z,65.04
2023-04-04T05:00:17.883Z,64.99
2023-04-04T05:02:46.602Z,64.98
2023-04-04T05:05:16.431Z,65.00
2023-04-04T05:07:47.249Z,65.06
2023-04-04T05:10:14.465Z,65.02
2023-04-04T05:12:45.593Z,65.03
2023-04-04T05:15:19.309Z,64.88
2023-04-04T05:17:50.420Z,65.26
2023-04-04T05:20:17.576Z,65.17
2023-04-04T05:22:49.055Z,65.21
2023-04-04T05:25:22.594Z,65.09
2023-04-04T05:27:49.880Z,65.10
2023-04-04T05:30:20.096Z,65.14
2023-04-04T05:32:57.474Z,65.10
2023-04-04T05:35:28.231Z,65.09
2023-04-04T05:37:57.583Z,65.07
2023-04-04T05:40:24.946Z,65.06
2023-04-04T05:43:04.379Z,65.17
2023-04-04T05:45:40.527Z,65.14
2023-04-04T05:48:08.304Z,65.26
2023-04-04T05:50:46.081Z,65.12
2023-04-04T05:53:13.486Z,65.35
2023-04-04T05:55:42.600Z,65.33
2023-04-04T05:58:10.868Z,65.43
2023-04-04T06:00:47.803Z,65.44
2023-04-04T06:03:14.973Z,65.50
2023-04-04T06:05:44.388Z,65.41
2023-04-04T06:08:12.277Z,65.38
2023-04-04T06:10:39.474Z,65.63
2023-04-04T06:13:06.604Z,65.60
2023-04-04T06:15:34.307Z,65.60
2023-04-04T06:18:01.251Z,65.70
2023-04-04T06:20:29.451Z,65.68
2023-04-04T06:22:56.475Z,65.75
2023-04-04T06:25:23.632Z,65.77
2023-04-04T06:27:51.438Z,65.82
2023-04-04T06:30:18.620Z,66.08
2023-04-04T06:32:49.775Z,66.09
2023-04-04T06:35:21.283Z,66.24
2023-04-04T06:37:58.078Z,66.34
2023-04-04T06:40:26.862Z,66.34
2023-04-04T06:42:57.990Z,66.28
2023-04-04T06:45:29.485Z,66.44
2023-04-04T06:47:56.676Z,66.41
2023-04-04T06:50:23.729Z,66.68
2023-04-04T06:52:50.965Z,66.23
2023-04-04T06:55:18.554Z,66.75
2023-04-04T06:57:45.679Z,66.74
2023-04-04T07:00:13.708Z,66.82
2023-04-04T07:02:40.829Z,67.01
2023-04-04T07:05:08.684Z,66.98
2023-04-04T07:07:35.612Z,67.05
2023-04-04T07:10:03.036Z,67.21
2023-04-04T07:12:31.584Z,67.20
2023-04-04T07:14:58.557Z,67.22
2023-04-04T07:17:25.681Z,67.45
2023-04-04T07:19:52.729Z,66.76
2023-04-04T07:22:19.682Z,66.28
2023-04-04T07:24:48.147Z,66.62
2023-04-04T07:27:15.861Z,66.86
2023-04-04T07:29:42.977Z,67.37
2023-04-04T07:32:10.080Z,67.31
2023-04-04T07:34:37.379Z,66.99
2023-04-04T07:37:04.352Z,67.64
2023-04-04T07:39:31.910Z,67.30
2023-04-04T07:41:58.890Z,67.08
2023-04-04T07:44:25.865Z,67.31
2023-04-04T07:47:06.437Z,67.15
2023-04-04T07:49:36.034Z,67.11
2023-04-04T07:52:03.169Z,66.54
2023-04-04T07:54:30.100Z,67.07
2023-04-04T07:56:57.113Z,66.73
2023-04-04T07:59:24.220Z,66.36
2023-04-04T08:01:51.319Z,66.95
2023-04-04T08:04:18.385Z,66.79
2023-04-04T08:06:45.585Z,66.93
2023-04-04T08:09:12.638Z,66.83
2023-04-04T08:11:39.545Z,66.11
2023-04-04T08:14:06.490Z,66.85
2023-04-04T08:16:33.809Z,66.23
2023-04-04T08:19:00.870Z,66.87
2023-04-04T08:21:28.137Z,66.35
2023-04-04T08:23:55.612Z,66.66
2023-04-04T08:26:22.791Z,65.76
2023-04-04T08:28:50.113Z,65.08
2023-04-04T08:31:17.425Z,64.60
2023-04-04T08:33:47.752Z,62.99
2023-04-04T08:36:16.327Z,64.53
2023-04-04T08:38:43.410Z,63.34
2023-04-04T08:41:12.040Z,62.76
2023-04-04T08:43:41.483Z,64.32
2023-04-04T08:46:11.634Z,63.59
2023-04-04T08:48:41.989Z,65.05
2023-04-04T08:51:14.007Z,61.49
2023-04-04T08:53:41.687Z,61.56
2023-04-04T08:56:08.827Z,63.09
2023-04-04T08:58:38.861Z,63.94
2023-04-04T09:01:07.158Z,64.15
2023-04-04T09:03:36.724Z,62.87
2023-04-04T09:06:05.060Z,62.98
2023-04-04T09:08:32.281Z,62.83
2023-04-04T09:11:03.569Z,64.29
2023-04-04T09:13:30.549Z,64.13
2023-04-04T09:15:58.806Z,64.70
2023-04-04T09:18:25.757Z,64.98
2023-04-04T09:20:52.895Z,65.38
2023-04-04T09:23:21.295Z,64.80
2023-04-04T09:28:23.047Z,62.36
2023-04-04T09:30:51.698Z,61.35
2023-04-04T09:33:21.915Z,63.77
2023-04-04T09:35:58.496Z,64.53
2023-04-04T09:38:31.212Z,65.00
2023-04-04T09:40:58.483Z,63.41
2023-04-04T09:43:26.105Z,63.46
2023-04-04T09:45:55.320Z,63.74
2023-04-04T09:48:27.766Z,63.97
2023-04-04T09:50:58.015Z,61.32
2023-04-04T09:53:25.433Z,60.33
2023-04-04T09:55:57.512Z,62.78
2023-04-04T09:58:27.719Z,63.05
2023-04-04T10:01:01.119Z,63.70
2023-04-04T10:03:30.134Z,57.21
2023-04-04T10:06:00.278Z,59.83
2023-04-04T10:08:29.329Z,60.83
2023-04-04T10:11:09.636Z,62.13
2023-04-04T10:13:44.522Z,62.65
2023-04-04T10:16:12.125Z,61.17
2023-04-04T10:18:39.781Z,58.17
2023-04-04T10:23:40.303Z,61.85
2023-04-04T10:26:07.696Z,63.31
2023-04-04T10:28:35.203Z,62.77
2023-04-04T10:31:24.755Z,62.39
2023-04-04T10:34:23.921Z,62.83
2023-04-04T10:37:03.450Z,61.33
2023-04-04T10:39:36.384Z,61.56
2023-04-04T10:42:06.807Z,59.32
2023-04-04T10:44:41.499Z,58.20
2023-04-04T10:47:15.485Z,58.41
2023-04-04T10:49:47.273Z,57.65
2023-04-04T10:52:19.784Z,55.42
2023-04-04T10:54:49.797Z,56.78
2023-04-04T10:57:17.461Z,58.26
2023-04-04T11:00:10.622Z,60.85
2023-04-04T11:02:59.398Z,61.87
2023-04-04T11:05:32.714Z,61.54
2023-04-04T11:08:08.561Z,63.04
2023-04-04T11:10:45.851Z,63.01
2023-04-04T11:13:24.769Z,64.19
2023-04-04T11:16:16.778Z,63.18
2023-04-04T11:18:45.131Z,61.06
2023-04-04T11:21:27.937Z,59.54
2023-04-04T11:23:54.752Z,58.69
2023-04-04T11:26:27.671Z,61.35
2023-04-04T11:28:59.786Z,62.36
2023-04-04T11:31:38.848Z,59.73
2023-04-04T11:34:30.147Z,54.47
2023-04-04T11:36:57.912Z,53.75
2023-04-04T11:39:30.767Z,50.04
2023-04-04T11:42:07.683Z,53.83
2023-04-04T11:44:49.220Z,55.65
2023-04-04T11:47:20.021Z,56.83
2023-04-04T11:49:47.813Z,54.68
2023-04-04T11:52:20.107Z,56.34
2023-04-04T11:54:50.064Z,54.39
2023-04-04T11:57:21.840Z,53.11
2023-04-04T11:59:51.393Z,53.99
2023-04-04T12:02:32.171Z,52.36
2023-04-04T12:05:00.147Z,52.78
2023-04-04T12:07:29.601Z,56.24
2023-04-04T12:09:57.650Z,54.81
2023-04-04T12:12:26.497Z,54.37
2023-04-04T12:14:58.082Z,55.75
2023-04-04T12:17:30.511Z,53.23
2023-04-04T12:19:57.737Z,55.95
2023-04-04T12:22:24.933Z,54.30
2023-04-04T12:24:51.970Z,52.80
2023-04-04T12:27:19.762Z,54.30
2023-04-04T12:29:47.575Z,52.25
2023-04-04T12:32:15.111Z,51.54
2023-04-04T12:34:47.248Z,48.60
2023-04-04T12:37:18.996Z,54.90
2023-04-04T12:39:50.836Z,55.41
2023-04-04T12:42:25.823Z,54.71
2023-04-04T12:44:54.244Z,54.70
2023-04-04T12:47:24.197Z,49.07
2023-04-04T12:49:56.530Z,50.91
2023-04-04T12:52:32.379Z,53.70
2023-04-04T12:55:08.375Z,48.62
2023-04-04T12:57:39.303Z,48.00
2023-04-04T13:00:08.921Z,49.68
2023-04-04T13:02:38.493Z,50.31
2023-04-04T13:05:07.119Z,52.78
2023-04-04T13:10:31.129Z,50.95
2023-04-04T13:13:01.290Z,52.62
2023-04-04T13:15:51.439Z,49.42
2023-04-04T13:18:25.433Z,50.51
2023-04-04T13:20:54.835Z,52.08
2023-04-04T13:23:22.776Z,49.82
2023-04-04T13:25:49.902Z,50.80
2023-04-04T13:28:17.426Z,51.35
2023-04-04T13:30:48.922Z,47.30
2023-04-04T13:33:17.838Z,48.08
2023-04-04T13:35:46.700Z,48.02
2023-04-04T13:38:13.880Z,52.21
2023-04-04T13:40:41.111Z,49.64
2023-04-04T13:43:11.180Z,47.46
2023-04-04T13:45:38.491Z,49.90
2023-04-04T13:48:05.689Z,52.15
2023-04-04T13:50:36.577Z,53.34
2023-04-04T14:04:47.708Z,47.54
2023-04-04T14:07:15.013Z,49.80
2023-04-04T14:09:42.173Z,47.18
2023-04-04T14:12:09.118Z,48.59
2023-04-04T14:14:37.822Z,47.60
2023-04-04T14:17:05.061Z,46.60
2023-04-04T14:19:32.007Z,50.24
2023-04-04T14:21:58.968Z,51.02
2023-04-04T14:24:26.015Z,50.11
2023-04-04T14:26:53.043Z,49.47
2023-04-04T14:29:19.998Z,48.37
2023-04-04T14:31:47.001Z,50.43
2023-04-04T14:34:14.118Z,52.57
2023-04-04T14:36:42.146Z,49.78
2023-04-04T14:39:09.315Z,48.79
2023-04-04T14:41:36.395Z,50.31
2023-04-04T14:44:03.382Z,51.67
2023-04-04T14:46:30.828Z,48.65
2023-04-04T14:48:58.179Z,48.34
2023-04-04T14:54:18.406Z,46.16
2023-04-04T14:56:45.609Z,48.68
2023-04-04T14:59:12.776Z,49.05
2023-04-04T15:01:40.101Z,49.99
2023-04-04T15:04:07.257Z,49.22
2023-04-04T15:06:37.827Z,46.84
2023-04-04T15:09:06.109Z,46.31
2023-04-04T15:11:33.409Z,48.55
2023-04-04T15:14:00.545Z,45.71
2023-04-04T15:16:32.682Z,45.36
2023-04-04T15:19:00.627Z,45.62
2023-04-04T15:21:28.724Z,45.75
2023-04-04T15:23:56.141Z,44.84
2023-04-04T15:26:23.262Z,45.28
2023-04-04T15:28:50.532Z,47.54
2023-04-04T15:31:18.029Z,45.35
2023-04-04T15:33:44.998Z,43.77
2023-04-04T15:36:12.031Z,46.79
2023-04-04T15:38:39.945Z,44.61
2023-04-04T15:41:09.327Z,45.04
2023-04-04T15:43:37.062Z,46.74
2023-04-04T15:46:04.622Z,44.14
2023-04-04T15:48:32.041Z,47.20
2023-04-04T15:51:02.885Z,46.76
2023-04-04T15:53:30.819Z,47.10
2023-04-04T15:55:58.752Z,45.43
2023-04-04T15:58:26.570Z,46.97
2023-04-04T16:00:53.831Z,46.09
2023-04-04T16:03:21.410Z,47.25
2023-04-04T16:05:48.480Z,46.88
2023-04-04T16:08:15.527Z,46.13
2023-04-04T16:10:44.070Z,45.48
2023-04-04T16:13:13.294Z,45.25
2023-04-04T16:15:40.371Z,46.85
2023-04-04T16:18:07.785Z,46.97
2023-04-04T16:20:35.564Z,46.78
2023-04-04T16:23:02.562Z,45.35
2023-04-04T16:25:29.558Z,45.50
2023-04-04T16:27:56.595Z,45.53
2023-04-04T16:30:23.543Z,46.08
2023-04-04T16:32:50.901Z,45.79
2023-04-04T16:35:18.002Z,45.06
2023-04-04T16:37:45.201Z,47.19
2023-04-04T16:40:14.040Z,45.77
2023-04-04T16:42:42.216Z,44.33
2023-04-04T16:45:10.238Z,46.13
2023-04-04T16:47:37.391Z,47.06
2023-04-04T16:50:06.963Z,45.44
2023-04-04T16:52:33.973Z,45.52
2023-04-04T16:55:01.107Z,45.58
2023-04-04T16:57:28.090Z,43.83
2023-04-04T16:59:55.106Z,45.74
2023-04-04T17:02:22.074Z,45.52
2023-04-04T17:04:49.140Z,45.94
2023-04-04T17:07:16.235Z,46.56
2023-04-04T17:09:43.225Z,47.01
2023-04-04T17:12:10.242Z,45.66
2023-04-04T17:14:37.526Z,45.60
2023-04-04T17:17:05.448Z,47.02
2023-04-04T17:19:34.764Z,46.53
2023-04-04T17:22:02.143Z,46.92
2023-04-04T17:24:29.148Z,47.92
2023-04-04T17:26:58.120Z,47.06
2023-04-04T17:29:26.905Z,46.72
2023-04-04T17:31:58.283Z,47.10
2023-04-04T17:34:25.994Z,47.36
2023-04-04T17:36:53.893Z,47.32
2023-04-04T17:39:21.536Z,47.47
2023-04-04T17:41:49.213Z,48.15
2023-04-04T17:44:17.691Z,47.52
2023-04-04T17:46:47.741Z,47.64
2023-04-04T17:49:19.707Z,47.82
2023-04-04T17:51:48.659Z,47.82
2023-04-04T17:54:15.713Z,47.89
2023-04-04T17:56:46.699Z,48.03
2023-04-04T17:59:15.752Z,48.12
2023-04-04T18:01:43.499Z,47.96
2023-04-04T18:04:10.515Z,47.95
2023-04-04T18:06:40.151Z,47.70
2023-04-04T18:09:09.056Z,47.83
2023-04-04T18:11:36.849Z,47.60
2023-04-04T18:14:04.425Z,47.57
2023-04-04T18:16:38.781Z,47.83
2023-04-04T18:19:06.448Z,47.96
2023-04-04T18:21:33.400Z,48.41
2023-04-04T18:24:00.463Z,48.14
2023-04-04T18:26:27.851Z,48.43
2023-04-04T18:28:54.823Z,48.66
2023-04-04T18:31:21.859Z,48.24
2023-04-04T18:33:49.742Z,48.16
2023-04-04T18:36:16.973Z,48.72
2023-04-04T18:38:45.504Z,48.22
2023-04-04T18:41:12.510Z,48.20
2023-04-04T18:43:39.966Z,48.67
2023-04-04T18:46:07.672Z,48.88
2023-04-04T18:48:34.774Z,48.79
2023-04-04T18:51:02.044Z,48.93
2023-04-04T18:53:29.504Z,48.82
2023-04-04T18:55:57.988Z,48.81
2023-04-04T18:58:26.046Z,48.66
2023-04-04T19:00:55.526Z,48.94
2023-04-04T19:03:23.127Z,48.88
2023-04-04T19:05:51.071Z,48.77
2023-04-04T19:08:19.238Z,48.75
2023-04-04T19:10:50.827Z,48.72
2023-04-04T19:13:18.451Z,48.93
2023-04-04T19:15:45.702Z,48.93
2023-04-04T19:18:12.817Z,49.00
2023-04-04T19:20:42.098Z,49.19
2023-04-04T19:23:10.215Z,49.12
2023-04-04T19:25:37.261Z,49.13
2023-04-04T19:28:04.581Z,49.35
2023-04-04T19:30:49.306Z,49.00
2023-04-04T19:33:25.650Z,48.85
2023-04-04T19:35:58.855Z,49.08
2023-04-04T19:38:32.476Z,49.55
2023-04-04T19:41:02.270Z,49.27
2023-04-04T19:43:30.730Z,49.42
2023-04-04T19:46:04.723Z,49.57
2023-04-04T19:48:38.428Z,49.19
2023-04-04T19:51:16.536Z,49.33
2023-04-04T19:53:45.826Z,49.58
2023-04-04T19:56:15.360Z,49.70
2023-04-04T19:58:43.227Z,49.76
2023-04-04T20:01:15.466Z,49.71
2023-04-04T20:03:44.363Z,49.71
2023-04-04T20:06:23.468Z,49.65
2023-04-04T20:08:53.978Z,49.81
2023-04-04T20:11:39.345Z,49.44
2023-04-04T20:14:09.064Z,50.07
2023-04-04T20:16:36.839Z,49.93
2023-04-04T20:19:06.693Z,50.04
2023-04-04T20:21:35.593Z,49.96
2023-04-04T20:24:07.925Z,49.96
2023-04-04T20:26:59.729Z,50.03
2023-04-04T20:29:29.799Z,50.21
2023-04-04T20:32:04.748Z,50.21
2023-04-04T20:34:49.714Z,49.70
2023-04-04T20:37:26.468Z,49.91
2023-04-04T20:40:37.818Z,49.78
2023-04-04T20:43:07.348Z,50.50
2023-04-04T20:45:44.806Z,50.37
2023-04-04T20:48:38.100Z,50.10
2023-04-04T20:51:31.769Z,50.19
2023-04-04T20:54:03.706Z,50.70
2023-04-04T20:56:39.326Z,50.51
2023-04-04T20:59:36.592Z,50.22
2023-04-04T21:02:16.880Z,50.56
2023-04-04T21:04:45.783Z,50.58
2023-04-04T21:07:37.330Z,50.24
2023-04-04T21:10:25.427Z,50.20
2023-04-04T21:13:01.721Z,50.67
2023-04-04T21:15:33.498Z,50.69
2023-04-04T21:18:07.272Z,51.01
2023-04-04T21:20:46.467Z,50.55
2023-04-04T21:23:25.426Z,50.59
2023-04-04T21:26:02.692Z,50.81
2023-04-04T21:28:32.632Z,50.97
2023-04-04T21:31:00.736Z,51.13
2023-04-04T21:33:27.860Z,51.20
2023-04-04T21:35:56.250Z,50.75
2023-04-04T21:38:31.353Z,50.99
2023-04-04T21:41:12.038Z,50.88
2023-04-04T21:43:39.059Z,51.12
2023-04-04T21:46:05.999Z,51.27
2023-04-04T21:48:32.957Z,51.31
2023-04-04T21:50:59.964Z,51.25
2023-04-04T21:53:27.041Z,51.21
2023-04-04T21:55:54.068Z,51.29
2023-04-04T21:58:21.112Z,50.90
2023-04-04T22:00:48.575Z,51.43
2023-04-04T22:03:16.672Z,51.18
2023-04-04T22:05:44.268Z,51.29
2023-04-04T22:08:11.789Z,51.64
2023-04-04T22:10:46.177Z,51.58
2023-04-04T22:13:22.278Z,51.67
2023-04-04T22:15:52.524Z,51.58
2023-04-04T22:18:30.411Z,51.59
2023-04-04T22:21:02.824Z,51.81
2023-04-04T22:23:35.423Z,51.33
2023-04-04T22:26:11.033Z,51.45
2023-04-04T22:28:38.814Z,51.40
2023-04-04T22:31:06.313Z,51.76
2023-04-04T22:33:34.579Z,52.00
2023-04-04T22:36:02.483Z,51.91
2023-04-04T22:38:30.036Z,51.98
2023-04-04T22:40:58.358Z,51.57
2023-04-04T22:43:25.930Z,51.94
2023-04-04T22:45:53.502Z,51.80
2023-04-04T22:48:24.143Z,51.78
2023-04-04T22:50:55.636Z,51.88
2023-04-04T22:53:26.004Z,51.98
2023-04-04T22:55:58.122Z,51.93
2023-04-04T22:58:28.227Z,51.95
2023-04-04T23:00:55.249Z,51.90
2023-04-04T23:03:22.196Z,51.92
2023-04-04T23:05:49.201Z,52.01
2023-04-04T23:08:16.423Z,51.84
2023-04-04T23:10:43.543Z,51.92
2023-04-04T23:13:10.523Z,52.08
2023-04-04T23:15:37.894Z,52.16
2023-04-04T23:18:05.354Z,52.08
2023-04-04T23:20:32.849Z,52.01
2023-04-04T23:22:59.944Z,52.33
2023-04-04T23:25:27.080Z,52.15
2023-04-04T23:27:54.305Z,52.19
2023-04-04T23:30:23.250Z,52.08
2023-04-04T23:32:50.497Z,52.12
2023-04-04T23:35:17.654Z,52.19
2023-04-04T23:37:44.722Z,52.21
2023-04-04T23:40:12.130Z,52.35
2023-04-04T23:42:39.154Z,52.48
2023-04-04T23:45:07.240Z,52.27
2023-04-04T23:47:34.479Z,52.34
2023-04-04T23:50:01.730Z,52.41
2023-04-04T23:52:29.345Z,52.42
2023-04-04T23:54:56.306Z,52.63
2023-04-04T23:57:23.234Z,52.45
2023-04-04T23:59:50.191Z,52.47
